X  Sluiten METAR luchtvaart weer gegevens      EHKD De Kooy Airport
Temperatuur
59°F Temperatuur
52°F Dauwpunt
77% Vochtigheid



Wind
16 MPH
26 KM/U
7 M/S
14 KTS



230°
ZW
Huidig weer

Wat bewolking Wat bewolking
Luchtdruk 1015.92 (hPa) - 30 (inHg)
Zicht 6 (mijl) - 9.7 (km)
Vliegveld
Vliegveld code EHKD

Locatie : De Kooy Airport
Afstand: 34 (mi)

Metar:
EHKD 280949Z AUTO 23014KT 200V260 9999 FEW016 15/11 Q1016 BLU NOSIG

Tijd: 28-05-2024 11:49 CEST